Terminal Aerodrome Forecast
Issued by NWS Wilmington, OH

Home | Current Version | Previous Version | Text Only | Print | Product List | Glossary On
Versions: 1 2 3 4 5 6 7 8 9 10 11 12 13
000
FTUS41 KILN 121500 AAA
TAFILN
TAF AMD
KILN 121500Z 1215/1312 20004KT P6SM SCT120 BKN200
     FM122000 23010KT P6SM VCSH BKN050
     FM130200 20006KT P6SM BKN100
     FM131000 20012KT P6SM BKN060=

USA.gov is the U.S. government's official web portal to all federal, state and local government web resources and services.